createdAt,value
2023-04-18T00:00:28.336Z,100816.72
2023-04-18T00:05:30.093Z,100806.50
2023-04-18T00:10:32.813Z,100805.63
2023-04-18T00:15:37.409Z,100798.97
2023-04-18T00:20:39.282Z,100798.56
2023-04-18T00:25:40.978Z,100787.31
2023-04-18T00:30:42.633Z,100795.38
2023-04-18T00:35:44.423Z,100794.41
2023-04-18T00:40:46.085Z,100793.75
2023-04-18T00:45:47.661Z,100793.28
2023-04-18T00:50:49.476Z,100796.69
2023-04-18T00:55:51.421Z,100799.00
2023-04-18T01:00:54.708Z,100796.09
2023-04-18T01:05:57.506Z,100797.75
2023-04-18T01:11:00.045Z,100792.25
2023-04-18T01:16:01.750Z,100780.94
2023-04-18T01:21:06.380Z,100774.78
2023-04-18T01:26:08.228Z,100770.03
2023-04-18T01:31:09.996Z,100774.09
2023-04-18T01:36:11.688Z,100757.09
2023-04-18T01:41:13.373Z,100763.59
2023-04-18T01:46:17.303Z,100757.28
2023-04-18T01:51:18.945Z,100755.75
2023-04-18T01:56:20.973Z,100755.56
2023-04-18T02:01:22.899Z,100762.03
2023-04-18T02:06:24.651Z,100756.69
2023-04-18T02:11:26.343Z,100759.88
2023-04-18T02:16:28.188Z,100752.63
2023-04-18T02:21:30.729Z,100752.22
2023-04-18T02:26:32.425Z,100744.72
2023-04-18T02:31:34.089Z,100744.97
2023-04-18T02:36:35.894Z,100748.16
2023-04-18T02:41:39.346Z,100749.19
2023-04-18T02:46:41.075Z,100754.00
2023-04-18T02:51:46.929Z,100748.03
2023-04-18T02:56:49.375Z,100747.25
2023-04-18T03:02:14.065Z,100753.78
2023-04-18T03:07:23.016Z,100747.28
2023-04-18T03:12:26.389Z,100745.63
2023-04-18T03:17:28.639Z,100736.38
2023-04-18T03:22:30.546Z,100747.94
2023-04-18T03:27:33.985Z,100739.13
2023-04-18T03:32:36.550Z,100746.25
2023-04-18T03:37:38.535Z,100732.38
2023-04-18T03:42:40.848Z,100732.38
2023-04-18T03:47:42.516Z,100731.72
2023-04-18T03:52:44.700Z,100733.63
2023-04-18T03:57:47.553Z,100730.06
2023-04-18T04:02:56.888Z,100734.66
2023-04-18T04:07:58.942Z,100730.25
2023-04-18T04:13:00.876Z,100730.25
2023-04-18T04:18:06.207Z,100722.69
2023-04-18T04:23:10.452Z,100732.13
2023-04-18T04:28:14.551Z,100730.06
2023-04-18T04:33:33.234Z,100734.22
2023-04-18T04:38:38.497Z,100729.97
2023-04-18T04:43:41.293Z,100733.75
2023-04-18T04:48:44.041Z,100737.31
2023-04-18T04:53:45.803Z,100746.31
2023-04-18T04:58:47.724Z,100742.59
2023-04-18T05:04:00.613Z,100745.75
2023-04-18T05:09:02.406Z,100730.44
2023-04-18T05:14:04.065Z,100742.25
2023-04-18T05:19:05.927Z,100742.63
2023-04-18T05:24:08.009Z,100742.69
2023-04-18T05:29:09.865Z,100741.03
2023-04-18T05:34:11.787Z,100746.16
2023-04-18T05:39:14.108Z,100744.97
2023-04-18T05:44:17.014Z,100753.28
2023-04-18T05:49:19.732Z,100758.31
2023-04-18T05:54:21.717Z,100764.19
2023-04-18T05:59:23.577Z,100759.09
2023-04-18T06:04:25.599Z,100771.25
2023-04-18T06:09:27.357Z,100779.00
2023-04-18T06:14:29.473Z,100766.00
2023-04-18T06:19:31.414Z,100767.41
2023-04-18T06:24:33.282Z,100773.00
2023-04-18T06:29:36.206Z,100799.69
2023-04-18T06:34:40.757Z,100786.66
2023-04-18T06:39:44.767Z,100791.44
2023-04-18T06:44:46.621Z,100783.31
2023-04-18T06:49:48.314Z,100797.19
2023-04-18T06:54:49.862Z,100797.44
2023-04-18T06:59:51.473Z,100797.88
2023-04-18T07:04:53.139Z,100793.16
2023-04-18T07:09:55.017Z,100770.00
2023-04-18T07:14:56.611Z,100782.13
2023-04-18T07:19:58.576Z,100793.41
2023-04-18T07:25:00.382Z,100776.03
2023-04-18T07:30:02.778Z,100776.28
2023-04-18T07:35:04.882Z,100774.16
2023-04-18T07:40:07.058Z,100770.75
2023-04-18T07:45:08.936Z,100784.06
2023-04-18T07:50:10.979Z,100776.16
2023-04-18T07:55:12.546Z,100780.81
2023-04-18T08:00:14.798Z,100775.38
2023-04-18T08:05:16.607Z,100772.84
2023-04-18T08:10:18.257Z,100781.03
2023-04-18T08:15:22.011Z,100784.63
2023-04-18T08:20:23.697Z,100781.69
2023-04-18T08:25:25.324Z,100777.66
2023-04-18T08:30:26.949Z,100783.13
2023-04-18T08:35:28.545Z,100795.97
2023-04-18T08:40:30.441Z,100803.56
2023-04-18T08:45:33.434Z,100797.44
2023-04-18T08:50:35.275Z,100807.97
2023-04-18T08:55:37.500Z,100793.25
2023-04-18T09:00:39.502Z,100814.25
2023-04-18T09:06:04.254Z,100795.53
2023-04-18T09:11:29.415Z,100798.22
2023-04-18T09:16:47.092Z,100784.25
2023-04-18T09:21:58.116Z,100782.25
2023-04-18T09:27:01.368Z,100759.41
2023-04-18T09:32:03.375Z,100773.53
2023-04-18T09:37:14.971Z,100774.59
2023-04-18T09:42:17.323Z,100795.03
2023-04-18T09:47:18.884Z,100779.28
2023-04-18T09:52:21.275Z,100770.97
2023-04-18T09:57:27.434Z,100757.19
2023-04-18T10:02:35.354Z,100730.16
2023-04-18T10:07:38.179Z,100757.38
2023-04-18T10:12:41.653Z,100749.47
2023-04-18T10:18:03.588Z,100755.94
2023-04-18T10:23:35.079Z,100752.50
2023-04-18T10:28:53.151Z,100747.97
2023-04-18T10:39:21.141Z,100709.84
2023-04-18T10:44:23.562Z,100710.06
2023-04-18T10:49:28.323Z,100688.78
2023-04-18T10:54:42.126Z,100707.53
2023-04-18T10:59:48.053Z,100682.53
2023-04-18T11:04:56.022Z,100688.78
2023-04-18T11:09:57.644Z,100681.59
2023-04-18T11:15:01.398Z,100689.16
2023-04-18T11:20:08.720Z,100688.56
2023-04-18T11:25:10.891Z,100701.41
2023-04-18T11:30:13.770Z,100671.00
2023-04-18T11:35:16.086Z,100679.66
2023-04-18T11:40:17.759Z,100663.09
2023-04-18T11:45:19.380Z,100661.94
2023-04-18T11:50:20.984Z,100658.13
2023-04-18T11:55:25.139Z,100649.75
2023-04-18T12:00:34.505Z,100683.72
2023-04-18T12:05:39.026Z,100662.06
2023-04-18T12:10:49.084Z,100668.75
2023-04-18T12:15:50.581Z,100711.16
2023-04-18T12:20:54.248Z,100694.53
2023-04-18T12:26:01.289Z,100722.56
2023-04-18T12:31:05.888Z,100663.63
2023-04-18T12:36:08.631Z,100681.81
2023-04-18T12:41:10.218Z,100651.03
2023-04-18T12:46:11.811Z,100645.34
2023-04-18T12:51:13.588Z,100655.88
2023-04-18T12:56:15.488Z,100627.94
2023-04-18T13:01:17.218Z,100650.50
2023-04-18T13:06:18.891Z,100672.09
2023-04-18T13:11:22.417Z,100683.50
2023-04-18T13:16:24.049Z,100665.53
2023-04-18T13:21:26.000Z,100662.66
2023-04-18T13:26:27.594Z,100628.19
2023-04-18T13:31:29.515Z,100637.41
2023-04-18T13:36:31.774Z,100631.81
2023-04-18T13:41:35.970Z,100628.34
2023-04-18T13:46:37.610Z,100624.69
2023-04-18T13:51:39.268Z,100587.13
2023-04-18T13:56:41.848Z,100619.38
2023-04-18T14:01:43.502Z,100620.75
2023-04-18T14:06:45.831Z,100640.50
2023-04-18T14:11:48.621Z,100594.19
2023-04-18T14:16:50.294Z,100624.06
2023-04-18T14:21:51.906Z,100576.84
2023-04-18T14:26:53.493Z,100585.78
2023-04-18T14:31:55.039Z,100616.59
2023-04-18T14:36:56.622Z,100619.88
2023-04-18T14:41:58.178Z,100636.28
2023-04-18T14:46:59.799Z,100638.94
2023-04-18T14:52:01.502Z,100646.09
2023-04-18T14:57:03.062Z,100639.56
2023-04-18T15:02:04.909Z,100639.66
2023-04-18T15:07:06.913Z,100612.31
2023-04-18T15:12:08.534Z,100615.19
2023-04-18T15:17:10.095Z,100581.59
2023-04-18T15:22:11.878Z,100597.06
2023-04-18T15:27:13.527Z,100580.25
2023-04-18T15:32:15.214Z,100592.13
2023-04-18T15:37:16.922Z,100599.03
2023-04-18T15:42:18.662Z,100605.50
2023-04-18T15:47:20.690Z,100620.78
2023-04-18T15:52:22.272Z,100618.66
2023-04-18T15:57:23.951Z,100627.19
2023-04-18T16:02:26.324Z,100627.28
2023-04-18T16:07:27.897Z,100613.75
2023-04-18T16:12:29.648Z,100624.88
2023-04-18T16:17:31.315Z,100603.13
2023-04-18T16:22:32.914Z,100611.41
2023-04-18T16:27:34.455Z,100613.91
2023-04-18T16:32:38.078Z,100630.34
2023-04-18T16:37:40.450Z,100640.19
2023-04-18T16:42:42.014Z,100651.97
2023-04-18T16:47:43.604Z,100651.44
2023-04-18T16:52:45.299Z,100670.75
2023-04-18T16:57:46.829Z,100668.97
2023-04-18T17:07:51.776Z,100673.69
2023-04-18T17:12:53.695Z,100685.66
2023-04-18T17:17:56.516Z,100700.41
2023-04-18T17:22:58.148Z,100674.19
2023-04-18T17:28:02.167Z,100675.03
2023-04-18T17:33:03.875Z,100680.75
2023-04-18T17:38:05.426Z,100675.00
2023-04-18T17:43:06.943Z,100691.31
2023-04-18T17:48:08.536Z,100703.94
2023-04-18T17:53:11.983Z,100717.00
2023-04-18T17:58:13.566Z,100727.50
2023-04-18T18:03:16.040Z,100739.72
2023-04-18T18:08:17.709Z,100756.66
2023-04-18T18:13:19.314Z,100762.75
2023-04-18T18:18:21.085Z,100752.75
2023-04-18T18:23:23.245Z,100768.63
2023-04-18T18:28:24.934Z,100760.50
2023-04-18T18:33:26.549Z,100770.34
2023-04-18T18:38:28.098Z,100783.41
2023-04-18T18:43:29.618Z,100795.13
2023-04-18T18:48:34.172Z,100801.09
2023-04-18T18:53:37.202Z,100804.38
2023-04-18T18:58:40.476Z,100800.03
2023-04-18T19:03:42.555Z,100828.78
2023-04-18T19:08:44.294Z,100837.13
2023-04-18T19:13:45.907Z,100830.16
2023-04-18T19:18:49.193Z,100844.16
2023-04-18T19:23:50.741Z,100838.53
2023-04-18T19:28:52.873Z,100842.41
2023-04-18T19:33:54.401Z,100843.13
2023-04-18T19:38:55.911Z,100852.97
2023-04-18T19:43:57.455Z,100842.06
2023-04-18T19:48:59.033Z,100864.97
2023-04-18T19:54:00.653Z,100851.06
2023-04-18T19:59:02.466Z,100860.00
2023-04-18T20:04:04.327Z,100874.25
2023-04-18T20:09:06.321Z,100874.50
2023-04-18T20:14:08.121Z,100876.34
2023-04-18T20:19:12.682Z,100882.47
2023-04-18T20:24:15.590Z,100876.53
2023-04-18T20:29:17.194Z,100882.22
2023-04-18T20:34:19.058Z,100880.09
2023-04-18T20:39:20.600Z,100886.25
2023-04-18T20:44:22.281Z,100873.16
2023-04-18T20:49:23.878Z,100886.41
2023-04-18T20:54:25.635Z,100888.78
2023-04-18T20:59:27.202Z,100896.34
2023-04-18T21:04:29.446Z,100886.44
2023-04-18T21:09:36.313Z,100882.88
2023-04-18T21:14:39.705Z,100900.81
2023-04-18T21:19:41.257Z,100894.72
2023-04-18T21:24:43.937Z,100899.56
2023-04-18T21:29:48.694Z,100902.53
2023-04-18T21:34:50.337Z,100903.16
2023-04-18T21:39:52.192Z,100908.63
2023-04-18T21:44:54.864Z,100914.09
2023-04-18T21:49:56.548Z,100905.25
2023-04-18T21:54:59.251Z,100903.38
2023-04-18T22:00:00.772Z,100909.28
2023-04-18T22:05:02.962Z,100905.28
2023-04-18T22:10:06.043Z,100903.63
2023-04-18T22:15:08.078Z,100911.22
2023-04-18T22:20:10.822Z,100907.03
2023-04-18T22:25:12.407Z,100897.97
2023-04-18T22:30:14.353Z,100903.66
2023-04-18T22:35:16.167Z,100902.19
2023-04-18T22:40:17.969Z,100904.31
2023-04-18T22:45:19.765Z,100901.16
2023-04-18T22:50:21.338Z,100898.00
2023-04-18T22:55:23.005Z,100898.00
2023-04-18T23:00:24.566Z,100907.47
2023-04-18T23:05:26.223Z,100903.28
2023-04-18T23:10:28.151Z,100907.91
2023-04-18T23:15:29.878Z,100906.66
2023-04-18T23:20:31.633Z,100913.38
2023-04-18T23:25:33.607Z,100912.56
2023-04-18T23:30:36.821Z,100911.69
2023-04-18T23:35:38.397Z,100913.41
2023-04-18T23:40:39.915Z,100919.91
2023-04-18T23:45:41.413Z,100906.44
2023-04-18T23:50:46.296Z,100913.81
2023-04-18T23:55:50.604Z,100914.63
